createdAt,value
2023-04-05T00:01:36.604Z,0.30
2023-04-05T00:04:12.468Z,0.25
2023-04-05T00:07:01.330Z,0.24
2023-04-05T00:09:36.475Z,0.24
2023-04-05T00:12:19.345Z,0.23
2023-04-05T00:14:56.483Z,0.19
2023-04-05T00:17:37.370Z,0.14
2023-04-05T00:20:24.630Z,0.07
2023-04-05T00:23:02.662Z,0.03
2023-04-05T00:25:39.933Z,-0.01
2023-04-05T00:28:17.017Z,-0.04
2023-04-05T00:31:04.687Z,-0.09
2023-04-05T00:33:44.389Z,-0.12
2023-04-05T00:36:25.543Z,-0.13
2023-04-05T00:38:57.227Z,-0.13
2023-04-05T00:41:36.754Z,-0.13
2023-04-05T00:44:19.608Z,-0.14
2023-04-05T00:46:52.930Z,-0.16
2023-04-05T00:49:47.973Z,-0.23
2023-04-05T00:52:41.554Z,-0.28
2023-04-05T00:56:08.734Z,-0.36
2023-04-05T00:58:46.323Z,-0.44
2023-04-05T01:01:22.778Z,-0.51
2023-04-05T01:04:06.728Z,-0.55
2023-04-05T01:07:47.561Z,-0.57
2023-04-05T01:10:43.661Z,-0.61
2023-04-05T01:13:26.830Z,-0.61
2023-04-05T01:16:24.768Z,-0.60
2023-04-05T01:19:04.540Z,-0.63
2023-04-05T01:22:47.678Z,-0.65
2023-04-05T01:25:56.667Z,-0.72
2023-04-05T01:28:59.807Z,-0.78
2023-04-05T01:31:42.328Z,-0.82
2023-04-05T01:34:33.983Z,-0.85
2023-04-05T01:37:19.820Z,-0.86
2023-04-05T01:40:06.150Z,-0.83
2023-04-05T01:42:47.693Z,-0.80
2023-04-05T01:45:26.579Z,-0.76
2023-04-05T01:48:08.839Z,-0.78
2023-04-05T01:50:50.204Z,-0.81
2023-04-05T01:53:32.912Z,-0.87
2023-04-05T01:56:14.181Z,-0.94
2023-04-05T01:58:49.723Z,-0.99
2023-04-05T02:01:29.369Z,-1.02
2023-04-05T02:04:01.913Z,-1.05
2023-04-05T02:06:42.394Z,-1.05
2023-04-05T02:09:24.537Z,-1.04
2023-04-05T02:12:03.696Z,-1.07
2023-04-05T02:14:39.498Z,-1.09
2023-04-05T02:17:29.282Z,-1.11
2023-04-05T02:20:16.748Z,-1.13
2023-04-05T02:22:47.539Z,-1.16
2023-04-05T02:25:27.911Z,-1.20
2023-04-05T02:28:02.038Z,-1.23
2023-04-05T02:30:34.540Z,-1.22
2023-04-05T02:33:15.363Z,-1.19
2023-04-05T02:35:56.676Z,-1.13
2023-04-05T02:38:37.281Z,-1.07
2023-04-05T02:41:17.861Z,-0.99
2023-04-05T02:44:00.642Z,-0.93
2023-04-05T02:46:45.625Z,-0.89
2023-04-05T02:49:24.974Z,-0.84
2023-04-05T02:52:00.341Z,-0.81
2023-04-05T02:54:33.529Z,-0.78
2023-04-05T02:57:17.153Z,-0.74
2023-04-05T02:59:58.657Z,-0.70
2023-04-05T03:02:35.217Z,-0.63
2023-04-05T03:05:13.670Z,-0.57
2023-04-05T03:07:51.100Z,-0.55
2023-04-05T03:10:35.753Z,-0.55
2023-04-05T03:13:13.622Z,-0.56
2023-04-05T03:15:55.580Z,-0.59
2023-04-05T03:18:44.026Z,-0.65
2023-04-05T03:21:18.506Z,-0.71
2023-04-05T03:23:58.309Z,-0.79
2023-04-05T03:26:36.241Z,-0.82
2023-04-05T03:29:07.177Z,-0.81
2023-04-05T03:31:47.983Z,-0.80
2023-04-05T03:34:29.449Z,-0.81
2023-04-05T03:37:04.310Z,-0.84
2023-04-05T03:39:45.648Z,-0.87
2023-04-05T03:42:18.556Z,-0.92
2023-04-05T03:44:58.410Z,-0.96
2023-04-05T03:47:30.988Z,-0.99
2023-04-05T03:50:05.533Z,-1.01
2023-04-05T03:53:12.391Z,-1.02
2023-04-05T03:55:54.626Z,-1.04
2023-04-05T03:58:48.241Z,-1.06
2023-04-05T04:01:25.241Z,-1.06
2023-04-05T04:04:05.480Z,-1.06
2023-04-05T04:06:43.396Z,-1.09
2023-04-05T04:09:22.395Z,-1.13
2023-04-05T04:11:55.031Z,-1.18
2023-04-05T04:14:28.969Z,-1.21
2023-04-05T04:17:38.088Z,-1.23
2023-04-05T04:20:26.257Z,-1.23
2023-04-05T04:23:27.305Z,-1.19
2023-04-05T04:26:29.402Z,-1.16
2023-04-05T04:29:21.315Z,-1.22
2023-04-05T04:32:55.417Z,-1.30
2023-04-05T04:35:47.168Z,-1.35
2023-04-05T04:38:54.890Z,-1.43
2023-04-05T04:41:47.405Z,-1.44
2023-04-05T04:44:47.122Z,-1.52
2023-04-05T04:47:44.009Z,-1.57
2023-04-05T04:50:35.216Z,-1.58
2023-04-05T04:53:18.904Z,-1.52
2023-04-05T04:55:55.933Z,-1.43
2023-04-05T04:58:32.135Z,-1.37
2023-04-05T05:01:13.276Z,-1.33
2023-04-05T05:03:48.587Z,-1.29
2023-04-05T05:06:23.799Z,-1.25
2023-04-05T05:08:56.768Z,-1.19
2023-04-05T05:11:29.498Z,-1.13
2023-04-05T05:14:00.415Z,-1.06
2023-04-05T05:16:36.245Z,-0.98
2023-04-05T05:19:09.341Z,-0.88
2023-04-05T05:21:52.001Z,-0.78
2023-04-05T05:24:22.960Z,-0.71
2023-04-05T05:27:09.709Z,-0.63
2023-04-05T05:29:39.822Z,-0.61
2023-04-05T05:32:17.368Z,-0.53
2023-04-05T05:34:52.894Z,-0.41
2023-04-05T05:37:36.689Z,-0.32
2023-04-05T05:40:10.104Z,-0.26
2023-04-05T05:42:44.243Z,-0.32
2023-04-05T05:45:14.265Z,-0.29
2023-04-05T05:47:54.849Z,-0.18
2023-04-05T05:50:26.055Z,0.01
2023-04-05T05:53:03.468Z,0.23
2023-04-05T05:55:39.123Z,0.40
2023-04-05T05:58:09.602Z,0.46
2023-04-05T06:00:40.085Z,0.48
2023-04-05T06:03:15.654Z,0.57
2023-04-05T06:06:03.789Z,0.64
2023-04-05T06:08:33.695Z,0.68
2023-04-05T06:11:07.789Z,0.69
2023-04-05T06:13:44.465Z,0.67
2023-04-05T06:16:26.084Z,0.67
2023-04-05T06:19:04.768Z,0.72
2023-04-05T06:21:38.096Z,0.77
2023-04-05T06:24:19.676Z,0.74
2023-04-05T06:26:55.042Z,0.69
2023-04-05T06:29:26.636Z,0.72
2023-04-05T06:32:02.882Z,0.85
2023-04-05T06:34:46.830Z,0.99
2023-04-05T06:37:21.600Z,1.06
2023-04-05T06:39:55.898Z,1.06
2023-04-05T06:42:28.306Z,0.99
2023-04-05T06:45:05.658Z,0.97
2023-04-05T06:47:42.375Z,1.01
2023-04-05T06:50:20.504Z,1.04
2023-04-05T06:52:57.522Z,1.09
2023-04-05T06:55:30.098Z,1.15
2023-04-05T06:58:08.189Z,1.14
2023-04-05T07:00:59.368Z,1.15
2023-04-05T07:03:30.060Z,1.18
2023-04-05T07:06:13.385Z,1.14
2023-04-05T07:08:57.006Z,1.10
2023-04-05T07:11:28.453Z,1.06
2023-04-05T07:14:01.950Z,1.10
2023-04-05T07:16:32.312Z,1.15
2023-04-05T07:19:02.867Z,1.23
2023-04-05T07:21:35.394Z,1.36
2023-04-05T07:24:07.133Z,1.43
2023-04-05T07:26:37.887Z,1.47
2023-04-05T07:29:20.987Z,1.51
2023-04-05T07:31:53.825Z,1.63
2023-04-05T07:34:37.365Z,1.86
2023-04-05T07:37:10.323Z,2.09
2023-04-05T07:39:41.482Z,2.27
2023-04-05T07:42:14.690Z,2.38
2023-04-05T07:44:45.235Z,2.45
2023-04-05T07:47:15.839Z,2.50
2023-04-05T07:50:00.216Z,2.59
2023-04-05T07:52:33.382Z,2.71
2023-04-05T07:55:07.772Z,2.75
2023-04-05T07:57:44.462Z,2.86
2023-04-05T08:05:59.741Z,3.16
2023-04-05T08:08:31.391Z,3.21
2023-04-05T08:11:05.813Z,3.13
2023-04-05T08:13:42.390Z,3.17
2023-04-05T08:16:13.445Z,3.22
2023-04-05T08:18:46.278Z,3.22
2023-04-05T08:21:22.658Z,3.15
2023-04-05T08:24:01.402Z,3.13
2023-04-05T08:26:59.028Z,3.12
2023-04-05T08:29:42.174Z,3.11
2023-04-05T08:32:15.511Z,3.23
2023-04-05T08:34:45.943Z,3.45
2023-04-05T08:37:24.817Z,3.68
2023-04-05T08:40:11.522Z,3.90
2023-04-05T08:43:40.483Z,4.12
2023-04-05T08:46:48.238Z,4.14
2023-04-05T08:49:26.019Z,4.07
2023-04-05T08:52:09.408Z,4.04
2023-04-05T08:54:40.970Z,4.03
2023-04-05T08:57:20.255Z,4.15
2023-04-05T09:03:08.256Z,4.17
2023-04-05T09:05:53.313Z,4.23
2023-04-05T09:08:34.506Z,4.53
2023-04-05T09:11:10.876Z,4.85
2023-04-05T09:13:41.965Z,5.13
2023-04-05T09:16:16.866Z,5.39
2023-04-05T09:18:51.249Z,5.61
2023-04-05T09:21:23.830Z,5.97
2023-04-05T09:23:58.972Z,6.40
2023-04-05T09:26:45.615Z,7.03
2023-04-05T09:29:32.869Z,7.80
2023-04-05T09:32:14.457Z,8.03
2023-04-05T09:35:03.903Z,7.75
2023-04-05T09:37:36.297Z,7.51
2023-04-05T09:40:10.922Z,7.44
2023-04-05T09:42:48.085Z,7.47
2023-04-05T09:45:21.567Z,7.54
2023-04-05T09:48:02.204Z,8.01
2023-04-05T09:50:40.706Z,8.61
2023-04-05T09:53:22.372Z,9.05
2023-04-05T09:55:56.292Z,9.36
2023-04-05T09:58:40.484Z,9.65
2023-04-05T10:01:17.299Z,9.93
2023-04-05T10:03:51.034Z,10.13
2023-04-05T10:06:21.414Z,10.54
2023-04-05T10:08:55.302Z,10.94
2023-04-05T10:11:25.964Z,10.99
2023-04-05T10:13:56.671Z,11.20
2023-04-05T10:16:32.248Z,11.48
2023-04-05T10:19:03.697Z,11.26
2023-04-05T10:21:41.975Z,10.58
2023-04-05T10:24:39.447Z,9.96
2023-04-05T10:27:33.316Z,9.50
2023-04-05T10:30:12.633Z,9.31
2023-04-05T10:33:07.363Z,9.18
2023-04-05T10:36:07.330Z,9.11
2023-04-05T10:39:04.622Z,9.42
2023-04-05T10:41:49.485Z,10.21
2023-04-05T10:44:31.990Z,10.93
2023-04-05T10:47:19.696Z,11.55
2023-04-05T10:49:59.996Z,11.64
2023-04-05T10:52:43.034Z,11.27
2023-04-05T10:55:17.874Z,10.76
2023-04-05T10:57:58.468Z,10.39
2023-04-05T11:00:35.448Z,10.04
2023-04-05T11:03:50.292Z,9.73
2023-04-05T11:06:35.813Z,9.43
2023-04-05T11:09:27.251Z,9.15
2023-04-05T11:12:16.442Z,8.94
2023-04-05T11:14:55.855Z,8.77
2023-04-05T11:17:39.324Z,8.65
2023-04-05T11:20:20.533Z,8.62
2023-04-05T11:23:09.050Z,8.59
2023-04-05T11:26:11.207Z,8.46
2023-04-05T11:28:47.229Z,8.35
2023-04-05T11:31:28.333Z,8.32
2023-04-05T11:34:11.648Z,8.31
2023-04-05T11:36:50.741Z,8.33
2023-04-05T11:39:33.060Z,8.25
2023-04-05T11:42:10.099Z,8.26
2023-04-05T11:45:04.935Z,8.33
2023-04-05T11:47:46.258Z,8.42
2023-04-05T11:50:31.703Z,8.48
2023-04-05T11:53:21.634Z,8.57
2023-04-05T11:56:19.193Z,8.63
2023-04-05T11:58:55.976Z,8.61
2023-04-05T12:01:34.736Z,8.66
2023-04-05T12:04:18.895Z,8.71
2023-04-05T12:07:18.321Z,8.64
2023-04-05T12:10:14.110Z,8.68
2023-04-05T12:12:48.051Z,8.76
2023-04-05T12:15:45.906Z,8.85
2023-04-05T12:18:31.991Z,8.88
2023-04-05T12:21:12.766Z,8.92
2023-04-05T12:23:52.529Z,8.95
2023-04-05T12:26:34.679Z,9.04
2023-04-05T12:29:14.475Z,9.12
2023-04-05T12:32:05.253Z,9.24
2023-04-05T12:34:58.371Z,9.17
2023-04-05T12:37:36.066Z,8.95
2023-04-05T12:40:16.212Z,8.83
2023-04-05T12:43:02.262Z,8.76
2023-04-05T12:45:44.673Z,8.86
2023-04-05T12:48:27.212Z,9.05
2023-04-05T12:51:21.035Z,9.00
2023-04-05T12:53:57.851Z,9.03
2023-04-05T12:56:31.023Z,9.10
2023-04-05T12:59:04.690Z,9.14
2023-04-05T13:01:39.800Z,9.17
2023-04-05T13:04:16.696Z,9.23
2023-04-05T13:06:51.868Z,9.24
2023-04-05T13:09:33.127Z,9.17
2023-04-05T13:12:11.543Z,9.06
2023-04-05T13:15:00.430Z,9.01
2023-04-05T13:17:34.879Z,9.02
2023-04-05T13:20:11.839Z,9.04
2023-04-05T13:22:47.885Z,9.00
2023-04-05T13:25:22.579Z,8.94
2023-04-05T13:27:58.671Z,8.89
2023-04-05T13:30:37.398Z,8.80
2023-04-05T13:33:09.097Z,8.75
2023-04-05T13:35:39.592Z,8.71
2023-04-05T13:38:12.717Z,8.67
2023-04-05T13:40:46.054Z,8.70
2023-04-05T13:43:28.276Z,8.75
2023-04-05T13:45:58.573Z,8.81
2023-04-05T13:48:35.756Z,8.88
2023-04-05T13:51:16.279Z,8.85
2023-04-05T13:54:00.996Z,8.83
2023-04-05T13:56:52.093Z,8.90
2023-04-05T14:03:32.719Z,8.87
2023-04-05T14:09:22.799Z,8.94
2023-04-05T14:11:57.362Z,9.00
2023-04-05T14:14:35.771Z,9.08
2023-04-05T14:17:12.897Z,9.16
2023-04-05T14:19:49.378Z,9.24
2023-04-05T14:22:28.762Z,9.28
2023-04-05T14:25:02.679Z,9.19
2023-04-05T14:27:46.161Z,9.11
2023-04-05T14:30:20.402Z,9.05
2023-04-05T14:33:00.017Z,9.02
2023-04-05T14:35:55.517Z,8.90
2023-04-05T14:38:31.370Z,8.91
2023-04-05T14:41:07.975Z,8.94
2023-04-05T14:43:43.531Z,8.88
2023-04-05T14:46:22.088Z,8.87
2023-04-05T14:48:55.677Z,8.76
2023-04-05T14:51:28.813Z,8.70
2023-04-05T14:54:19.031Z,8.65
2023-04-05T14:57:02.596Z,8.65
2023-04-05T14:59:51.247Z,8.70
2023-04-05T15:03:11.350Z,8.66
2023-04-05T15:06:07.629Z,8.46
2023-04-05T15:08:55.280Z,8.34
2023-04-05T15:12:13.422Z,8.23
2023-04-05T15:14:54.544Z,8.12
2023-04-05T15:17:59.972Z,8.00
2023-04-05T15:20:48.105Z,7.82
2023-04-05T15:23:30.070Z,7.76
2023-04-05T15:26:22.616Z,7.75
2023-04-05T15:29:28.026Z,7.67
2023-04-05T15:32:15.518Z,7.57
2023-04-05T15:35:16.509Z,7.42
2023-04-05T15:37:51.921Z,7.35
2023-04-05T15:40:31.729Z,7.30
2023-04-05T15:43:11.805Z,7.24
2023-04-05T15:45:51.397Z,7.22
2023-04-05T15:48:40.033Z,7.17
2023-04-05T15:51:13.870Z,7.07
2023-04-05T15:54:52.562Z,6.99
2023-04-05T15:57:31.142Z,6.84
2023-04-05T16:00:17.119Z,6.78
2023-04-05T16:02:56.149Z,6.75
2023-04-05T16:05:35.493Z,6.73
2023-04-05T16:08:11.080Z,6.72
2023-04-05T16:10:53.630Z,6.68
2023-04-05T16:13:57.485Z,6.64
2023-04-05T16:16:41.964Z,6.63
2023-04-05T16:19:25.485Z,6.63
2023-04-05T16:22:00.836Z,6.63
2023-04-05T16:24:37.454Z,6.65
2023-04-05T16:27:16.835Z,6.65
2023-04-05T16:29:51.277Z,6.65
2023-04-05T16:32:23.595Z,6.64
2023-04-05T16:34:56.256Z,6.59
2023-04-05T16:37:27.848Z,6.55
2023-04-05T16:40:00.642Z,6.48
2023-04-05T16:42:38.254Z,6.41
2023-04-05T16:45:13.244Z,6.35
2023-04-05T16:47:44.273Z,6.27
2023-04-05T16:50:23.703Z,6.21
2023-04-05T16:53:03.734Z,6.19
2023-04-05T16:55:38.501Z,6.14
2023-04-05T16:58:09.259Z,6.09
2023-04-05T17:00:45.458Z,6.07
2023-04-05T17:03:22.984Z,6.05
2023-04-05T17:05:54.808Z,6.02
2023-04-05T17:08:32.790Z,5.99
2023-04-05T17:11:10.836Z,5.91
2023-04-05T17:13:50.861Z,5.84
2023-04-05T17:16:25.912Z,5.76
2023-04-05T17:19:02.714Z,5.66
2023-04-05T17:21:37.459Z,5.58
2023-04-05T17:24:12.134Z,5.52
2023-04-05T17:26:49.859Z,5.47
2023-04-05T17:29:27.165Z,5.45
2023-04-05T17:31:58.249Z,5.44
2023-04-05T17:34:34.175Z,5.42
2023-04-05T17:37:05.164Z,5.39
2023-04-05T17:39:45.378Z,5.36
2023-04-05T17:42:20.356Z,5.32
2023-04-05T17:44:56.169Z,5.30
2023-04-05T17:47:31.630Z,5.19
2023-04-05T17:50:07.208Z,5.17
2023-04-05T17:52:48.868Z,5.18
2023-04-05T17:55:22.826Z,5.16
2023-04-05T17:57:55.885Z,5.12
2023-04-05T18:00:29.593Z,5.10
2023-04-05T18:03:13.166Z,5.08
2023-04-05T18:05:46.827Z,5.03
2023-04-05T18:08:17.670Z,4.98
2023-04-05T18:10:58.944Z,4.93
2023-04-05T18:13:40.319Z,4.87
2023-04-05T18:16:11.019Z,4.80
2023-04-05T18:18:46.865Z,4.74
2023-04-05T18:21:34.296Z,4.66
2023-04-05T18:24:12.520Z,4.58
2023-04-05T18:26:45.474Z,4.52
2023-04-05T18:29:17.886Z,4.45
2023-04-05T18:31:47.987Z,4.40
2023-04-05T18:34:22.169Z,4.32
2023-04-05T18:36:59.961Z,4.14
2023-04-05T18:40:07.158Z,4.04
2023-04-05T18:42:40.795Z,3.95
2023-04-05T18:45:11.914Z,3.91
2023-04-05T18:47:54.020Z,3.88
2023-04-05T18:50:26.576Z,3.82
2023-04-05T18:53:09.813Z,3.75
2023-04-05T18:55:42.390Z,3.68
2023-04-05T18:58:12.728Z,3.64
2023-04-05T19:00:42.957Z,3.59
2023-04-05T19:03:16.867Z,3.53
2023-04-05T19:05:53.820Z,3.50
2023-04-05T19:08:47.125Z,3.46
2023-04-05T19:11:19.399Z,3.38
2023-04-05T19:13:52.891Z,3.32
2023-04-05T19:16:28.506Z,3.27
2023-04-05T19:18:58.091Z,3.22
2023-04-05T19:21:28.621Z,3.16
2023-04-05T19:23:58.112Z,3.09
2023-04-05T19:26:35.918Z,3.04
2023-04-05T19:29:08.630Z,3.00
2023-04-05T19:31:51.327Z,2.95
2023-04-05T19:34:21.957Z,2.90
2023-04-05T19:37:01.184Z,2.86
2023-04-05T19:40:20.577Z,2.83
2023-04-05T19:43:43.429Z,2.71
2023-04-05T19:46:17.158Z,2.68
2023-04-05T19:48:54.670Z,2.67
2023-04-05T19:51:33.172Z,2.64
2023-04-05T19:54:15.125Z,2.60
2023-04-05T19:56:48.594Z,2.55
2023-04-05T19:59:33.493Z,2.50
2023-04-05T20:02:34.731Z,2.46
2023-04-05T20:05:26.057Z,2.38
2023-04-05T20:07:56.648Z,2.32
2023-04-05T20:10:42.442Z,2.31
2023-04-05T20:13:12.547Z,2.29
2023-04-05T20:15:46.870Z,2.28
2023-04-05T20:18:26.292Z,2.27
2023-04-05T20:21:03.409Z,2.25
2023-04-05T20:23:38.471Z,2.22
2023-04-05T20:26:35.644Z,2.17
2023-04-05T20:29:11.287Z,2.13
2023-04-05T20:31:57.735Z,2.09
2023-04-05T20:34:39.474Z,2.02
2023-04-05T20:37:13.950Z,1.99
2023-04-05T20:39:49.829Z,1.97
2023-04-05T20:42:26.819Z,1.95
2023-04-05T20:44:57.648Z,1.92
2023-04-05T20:47:36.885Z,1.85
2023-04-05T20:50:14.277Z,1.81
2023-04-05T20:52:50.005Z,1.75
2023-04-05T20:55:26.973Z,1.70
2023-04-05T20:57:57.025Z,1.68
2023-04-05T21:00:29.991Z,1.68
2023-04-05T21:03:00.207Z,1.66
2023-04-05T21:05:30.203Z,1.65
2023-04-05T21:08:00.289Z,1.63
2023-04-05T21:10:36.973Z,1.59
2023-04-05T21:13:14.052Z,1.55
2023-04-05T21:15:50.429Z,1.53
2023-04-05T21:18:22.531Z,1.53
2023-04-05T21:20:57.557Z,1.52
2023-04-05T21:23:32.053Z,1.50
2023-04-05T21:26:10.804Z,1.45
2023-04-05T21:28:45.206Z,1.41
2023-04-05T21:31:23.845Z,1.38
2023-04-05T21:33:55.379Z,1.36
2023-04-05T21:36:28.496Z,1.35
2023-04-05T21:39:04.322Z,1.33
2023-04-05T21:41:35.246Z,1.30
2023-04-05T21:44:13.573Z,1.31
2023-04-05T21:46:57.856Z,1.32
2023-04-05T21:49:30.795Z,1.30
2023-04-05T21:52:00.360Z,1.29
2023-04-05T21:54:29.578Z,1.27
2023-04-05T21:56:59.292Z,1.25
2023-04-05T21:59:30.793Z,1.23
2023-04-05T22:02:09.000Z,1.22
2023-04-05T22:04:41.341Z,1.25
2023-04-05T22:07:14.915Z,1.29
2023-04-05T22:09:49.749Z,1.31
2023-04-05T22:12:23.233Z,1.33
2023-04-05T22:14:59.329Z,1.32
2023-04-05T22:17:36.469Z,1.30
2023-04-05T22:20:17.879Z,1.17
2023-04-05T22:22:59.149Z,1.13
2023-04-05T22:26:28.136Z,1.14
2023-04-05T22:29:04.222Z,1.14
2023-04-05T22:31:39.576Z,1.18
2023-04-05T22:34:27.831Z,1.19
2023-04-05T22:37:08.236Z,1.19
2023-04-05T22:39:49.737Z,1.20
2023-04-05T22:42:25.265Z,1.22
2023-04-05T22:48:16.153Z,1.24
2023-04-05T22:50:52.786Z,1.22
2023-04-05T22:53:28.770Z,1.21
2023-04-05T22:57:15.855Z,1.21
2023-04-05T22:59:31.986Z,1.24
2023-04-05T23:02:05.326Z,1.31
2023-04-05T23:04:41.311Z,1.41
2023-04-05T23:07:13.811Z,1.44
2023-04-05T23:09:50.387Z,1.46
2023-04-05T23:12:25.892Z,1.47
2023-04-05T23:14:59.745Z,1.48
2023-04-05T23:17:36.824Z,1.47
2023-04-05T23:20:16.335Z,1.44
2023-04-05T23:22:52.639Z,1.39
2023-04-05T23:25:35.249Z,1.35
2023-04-05T23:28:33.903Z,1.32
2023-04-05T23:31:18.023Z,1.27
2023-04-05T23:33:50.321Z,1.23
2023-04-05T23:36:22.552Z,1.23
2023-04-05T23:39:07.562Z,1.23
2023-04-05T23:41:39.213Z,1.22
2023-04-05T23:44:19.580Z,1.11
2023-04-05T23:46:55.660Z,1.05
2023-04-05T23:49:28.244Z,1.04
2023-04-05T23:51:59.352Z,1.00
2023-04-05T23:54:29.200Z,0.90
2023-04-05T23:57:25.010Z,0.90
